sensor_id;sensor_type;location;lat;lon;timestamp;P1;durP1;ratioP1;P2;durP2;ratioP2
29662;SDS011;16578;53.266;7.920;2023-04-15T00:01:00;3.95;;;3.55;;
29662;SDS011;16578;53.266;7.920;2023-04-15T00:03:33;6.55;;;4.55;;
29662;SDS011;16578;53.266;7.920;2023-04-15T00:06:04;4.47;;;4.05;;
29662;SDS011;16578;53.266;7.920;2023-04-15T00:08:39;5.43;;;4.32;;
29662;SDS011;16578;53.266;7.920;2023-04-15T00:17:45;4.95;;;3.95;;
29662;SDS011;16578;53.266;7.920;2023-04-15T00:20:28;8.30;;;4.50;;
29662;SDS011;16578;53.266;7.920;2023-04-15T00:26:51;3.97;;;3.53;;
29662;SDS011;16578;53.266;7.920;2023-04-15T00:29:17;5.03;;;4.47;;
29662;SDS011;16578;53.266;7.920;2023-04-15T00:31:43;5.80;;;3.67;;
29662;SDS011;16578;53.266;7.920;2023-04-15T00:34:09;6.10;;;3.95;;
29662;SDS011;16578;53.266;7.920;2023-04-15T00:36:34;7.47;;;4.63;;
29662;SDS011;16578;53.266;7.920;2023-04-15T00:39:00;5.70;;;4.70;;
29662;SDS011;16578;53.266;7.920;2023-04-15T00:41:27;5.75;;;4.95;;
29662;SDS011;16578;53.266;7.920;2023-04-15T00:43:52;6.00;;;4.78;;
29662;SDS011;16578;53.266;7.920;2023-04-15T00:46:18;6.35;;;5.05;;
29662;SDS011;16578;53.266;7.920;2023-04-15T00:48:46;4.57;;;4.18;;
29662;SDS011;16578;53.266;7.920;2023-04-15T00:51:12;7.05;;;4.90;;
29662;SDS011;16578;53.266;7.920;2023-04-15T00:53:38;6.80;;;5.18;;
29662;SDS011;16578;53.266;7.920;2023-04-15T00:56:07;5.22;;;4.68;;
29662;SDS011;16578;53.266;7.920;2023-04-15T01:01:05;5.82;;;4.68;;
29662;SDS011;16578;53.266;7.920;2023-04-15T01:03:30;5.82;;;4.90;;
29662;SDS011;16578;53.266;7.920;2023-04-15T01:05:56;7.43;;;5.43;;
29662;SDS011;16578;53.266;7.920;2023-04-15T01:08:28;6.75;;;5.28;;
29662;SDS011;16578;53.266;7.920;2023-04-15T01:10:58;6.57;;;5.68;;
29662;SDS011;16578;53.266;7.920;2023-04-15T01:13:31;8.27;;;6.38;;
29662;SDS011;16578;53.266;7.920;2023-04-15T01:16:01;9.18;;;7.28;;
29662;SDS011;16578;53.266;7.920;2023-04-15T01:18:30;9.80;;;7.35;;
29662;SDS011;16578;53.266;7.920;2023-04-15T01:21:09;11.00;;;6.97;;
29662;SDS011;16578;53.266;7.920;2023-04-15T01:23:40;7.72;;;6.57;;
29662;SDS011;16578;53.266;7.920;2023-04-15T01:26:13;10.02;;;7.65;;
29662;SDS011;16578;53.266;7.920;2023-04-15T01:28:48;9.32;;;7.28;;
29662;SDS011;16578;53.266;7.920;2023-04-15T01:31:14;8.65;;;6.35;;
29662;SDS011;16578;53.266;7.920;2023-04-15T01:33:43;7.97;;;7.10;;
29662;SDS011;16578;53.266;7.920;2023-04-15T01:36:11;9.32;;;7.30;;
29662;SDS011;16578;53.266;7.920;2023-04-15T01:38:36;8.95;;;7.28;;
29662;SDS011;16578;53.266;7.920;2023-04-15T01:41:08;10.80;;;8.30;;
29662;SDS011;16578;53.266;7.920;2023-04-15T01:43:34;10.15;;;7.45;;
29662;SDS011;16578;53.266;7.920;2023-04-15T01:46:06;9.95;;;7.20;;
29662;SDS011;16578;53.266;7.920;2023-04-15T01:48:43;10.50;;;8.40;;
29662;SDS011;16578;53.266;7.920;2023-04-15T01:51:12;9.15;;;7.60;;
29662;SDS011;16578;53.266;7.920;2023-04-15T01:53:45;10.27;;;8.02;;
29662;SDS011;16578;53.266;7.920;2023-04-15T01:56:14;9.77;;;7.65;;
29662;SDS011;16578;53.266;7.920;2023-04-15T01:58:47;11.98;;;8.57;;
29662;SDS011;16578;53.266;7.920;2023-04-15T02:01:17;11.93;;;9.27;;
29662;SDS011;16578;53.266;7.920;2023-04-15T02:03:44;11.02;;;8.38;;
29662;SDS011;16578;53.266;7.920;2023-04-15T02:06:13;10.65;;;8.25;;
29662;SDS011;16578;53.266;7.920;2023-04-15T02:08:38;10.07;;;8.48;;
29662;SDS011;16578;53.266;7.920;2023-04-15T02:11:04;9.52;;;7.63;;
29662;SDS011;16578;53.266;7.920;2023-04-15T02:13:30;10.82;;;8.13;;
29662;SDS011;16578;53.266;7.920;2023-04-15T02:15:56;10.48;;;8.82;;
29662;SDS011;16578;53.266;7.920;2023-04-15T02:18:24;11.65;;;8.48;;
29662;SDS011;16578;53.266;7.920;2023-04-15T02:21:01;12.23;;;8.90;;
29662;SDS011;16578;53.266;7.920;2023-04-15T02:23:31;12.10;;;9.23;;
29662;SDS011;16578;53.266;7.920;2023-04-15T02:25:59;13.38;;;9.38;;
29662;SDS011;16578;53.266;7.920;2023-04-15T02:28:40;12.88;;;10.10;;
29662;SDS011;16578;53.266;7.920;2023-04-15T02:31:09;13.23;;;8.93;;
29662;SDS011;16578;53.266;7.920;2023-04-15T02:33:34;15.25;;;10.40;;
29662;SDS011;16578;53.266;7.920;2023-04-15T02:36:01;11.13;;;8.88;;
29662;SDS011;16578;53.266;7.920;2023-04-15T02:38:27;12.10;;;9.35;;
29662;SDS011;16578;53.266;7.920;2023-04-15T02:40:54;11.80;;;8.75;;
29662;SDS011;16578;53.266;7.920;2023-04-15T02:43:20;12.70;;;8.85;;
29662;SDS011;16578;53.266;7.920;2023-04-15T02:45:48;11.70;;;8.68;;
29662;SDS011;16578;53.266;7.920;2023-04-15T02:54:00;10.10;;;8.43;;
29662;SDS011;16578;53.266;7.920;2023-04-15T02:56:26;13.18;;;8.68;;
29662;SDS011;16578;53.266;7.920;2023-04-15T02:58:58;12.70;;;9.45;;
29662;SDS011;16578;53.266;7.920;2023-04-15T03:01:24;12.93;;;9.32;;
29662;SDS011;16578;53.266;7.920;2023-04-15T03:03:50;10.15;;;8.57;;
29662;SDS011;16578;53.266;7.920;2023-04-15T03:06:15;12.85;;;9.27;;
29662;SDS011;16578;53.266;7.920;2023-04-15T03:08:41;11.13;;;9.02;;
29662;SDS011;16578;53.266;7.920;2023-04-15T03:11:07;11.68;;;9.18;;
29662;SDS011;16578;53.266;7.920;2023-04-15T03:13:32;12.02;;;9.27;;
29662;SDS011;16578;53.266;7.920;2023-04-15T03:15:58;12.95;;;9.60;;
29662;SDS011;16578;53.266;7.920;2023-04-15T03:18:23;12.18;;;9.30;;
29662;SDS011;16578;53.266;7.920;2023-04-15T03:20:49;12.20;;;10.32;;
29662;SDS011;16578;53.266;7.920;2023-04-15T03:23:15;13.32;;;10.63;;
29662;SDS011;16578;53.266;7.920;2023-04-15T03:25:40;14.00;;;10.02;;
29662;SDS011;16578;53.266;7.920;2023-04-15T03:28:06;14.15;;;11.10;;
29662;SDS011;16578;53.266;7.920;2023-04-15T03:30:32;13.73;;;10.88;;
29662;SDS011;16578;53.266;7.920;2023-04-15T03:32:57;14.02;;;10.73;;
29662;SDS011;16578;53.266;7.920;2023-04-15T03:35:23;15.02;;;11.00;;
29662;SDS011;16578;53.266;7.920;2023-04-15T03:37:48;13.25;;;10.27;;
29662;SDS011;16578;53.266;7.920;2023-04-15T03:40:14;13.70;;;9.90;;
29662;SDS011;16578;53.266;7.920;2023-04-15T03:42:40;12.93;;;9.90;;
29662;SDS011;16578;53.266;7.920;2023-04-15T03:45:06;14.20;;;11.05;;
29662;SDS011;16578;53.266;7.920;2023-04-15T03:47:32;12.90;;;10.02;;
29662;SDS011;16578;53.266;7.920;2023-04-15T03:49:57;13.82;;;10.48;;
29662;SDS011;16578;53.266;7.920;2023-04-15T03:52:23;13.88;;;10.52;;
29662;SDS011;16578;53.266;7.920;2023-04-15T03:54:48;13.40;;;9.77;;
29662;SDS011;16578;53.266;7.920;2023-04-15T03:57:14;14.90;;;10.77;;
29662;SDS011;16578;53.266;7.920;2023-04-15T03:59:39;13.70;;;10.35;;
29662;SDS011;16578;53.266;7.920;2023-04-15T04:02:05;11.15;;;9.40;;
29662;SDS011;16578;53.266;7.920;2023-04-15T04:04:30;13.32;;;9.40;;
29662;SDS011;16578;53.266;7.920;2023-04-15T04:06:56;10.82;;;8.75;;
29662;SDS011;16578;53.266;7.920;2023-04-15T04:09:21;14.13;;;10.60;;
29662;SDS011;16578;53.266;7.920;2023-04-15T04:11:47;10.45;;;8.75;;
29662;SDS011;16578;53.266;7.920;2023-04-15T04:14:13;11.65;;;9.30;;
29662;SDS011;16578;53.266;7.920;2023-04-15T04:16:38;13.00;;;9.65;;
29662;SDS011;16578;53.266;7.920;2023-04-15T04:19:04;12.70;;;9.35;;
29662;SDS011;16578;53.266;7.920;2023-04-15T04:21:29;12.50;;;9.95;;
29662;SDS011;16578;53.266;7.920;2023-04-15T04:23:55;13.45;;;10.23;;
29662;SDS011;16578;53.266;7.920;2023-04-15T04:26:20;11.93;;;9.57;;
29662;SDS011;16578;53.266;7.920;2023-04-15T04:28:46;13.55;;;9.70;;
29662;SDS011;16578;53.266;7.920;2023-04-15T04:31:12;11.82;;;9.48;;
29662;SDS011;16578;53.266;7.920;2023-04-15T04:33:38;11.52;;;9.52;;
29662;SDS011;16578;53.266;7.920;2023-04-15T04:36:03;13.00;;;9.40;;
29662;SDS011;16578;53.266;7.920;2023-04-15T04:38:29;11.65;;;9.40;;
29662;SDS011;16578;53.266;7.920;2023-04-15T04:40:55;11.48;;;9.35;;
29662;SDS011;16578;53.266;7.920;2023-04-15T04:43:21;12.90;;;9.05;;
29662;SDS011;16578;53.266;7.920;2023-04-15T04:45:46;10.60;;;8.82;;
29662;SDS011;16578;53.266;7.920;2023-04-15T04:48:12;11.52;;;8.85;;
29662;SDS011;16578;53.266;7.920;2023-04-15T04:50:37;11.45;;;8.57;;
29662;SDS011;16578;53.266;7.920;2023-04-15T04:53:03;12.18;;;9.13;;
29662;SDS011;16578;53.266;7.920;2023-04-15T04:55:28;10.40;;;8.43;;
29662;SDS011;16578;53.266;7.920;2023-04-15T04:57:55;11.82;;;8.40;;
29662;SDS011;16578;53.266;7.920;2023-04-15T05:00:21;11.50;;;9.05;;
29662;SDS011;16578;53.266;7.920;2023-04-15T05:02:47;11.00;;;8.52;;
29662;SDS011;16578;53.266;7.920;2023-04-15T05:05:12;13.43;;;9.15;;
29662;SDS011;16578;53.266;7.920;2023-04-15T05:07:38;15.13;;;9.57;;
29662;SDS011;16578;53.266;7.920;2023-04-15T05:10:03;11.75;;;8.95;;
29662;SDS011;16578;53.266;7.920;2023-04-15T05:12:30;11.73;;;8.70;;
29662;SDS011;16578;53.266;7.920;2023-04-15T05:14:56;10.98;;;8.60;;
29662;SDS011;16578;53.266;7.920;2023-04-15T05:17:22;11.10;;;8.32;;
29662;SDS011;16578;53.266;7.920;2023-04-15T05:19:47;11.65;;;8.52;;
29662;SDS011;16578;53.266;7.920;2023-04-15T05:22:15;9.15;;;5.93;;
29662;SDS011;16578;53.266;7.920;2023-04-15T05:24:41;12.48;;;8.35;;
29662;SDS011;16578;53.266;7.920;2023-04-15T05:27:06;12.23;;;8.95;;
29662;SDS011;16578;53.266;7.920;2023-04-15T05:29:32;13.23;;;8.68;;
29662;SDS011;16578;53.266;7.920;2023-04-15T05:32:01;12.23;;;8.07;;
29662;SDS011;16578;53.266;7.920;2023-04-15T05:34:26;10.27;;;8.23;;
29662;SDS011;16578;53.266;7.920;2023-04-15T05:36:52;11.80;;;8.15;;
29662;SDS011;16578;53.266;7.920;2023-04-15T05:39:17;11.43;;;8.38;;
29662;SDS011;16578;53.266;7.920;2023-04-15T05:41:43;11.40;;;8.60;;
29662;SDS011;16578;53.266;7.920;2023-04-15T05:44:09;11.18;;;8.55;;
29662;SDS011;16578;53.266;7.920;2023-04-15T05:46:34;13.35;;;9.25;;
29662;SDS011;16578;53.266;7.920;2023-04-15T05:49:00;12.15;;;8.63;;
29662;SDS011;16578;53.266;7.920;2023-04-15T05:51:25;13.10;;;9.10;;
29662;SDS011;16578;53.266;7.920;2023-04-15T05:53:51;10.10;;;8.20;;
29662;SDS011;16578;53.266;7.920;2023-04-15T05:56:16;13.75;;;8.00;;
29662;SDS011;16578;53.266;7.920;2023-04-15T05:58:42;12.25;;;8.35;;
29662;SDS011;16578;53.266;7.920;2023-04-15T06:01:08;10.23;;;7.85;;
29662;SDS011;16578;53.266;7.920;2023-04-15T06:03:33;12.65;;;8.40;;
29662;SDS011;16578;53.266;7.920;2023-04-15T06:05:59;12.60;;;8.98;;
29662;SDS011;16578;53.266;7.920;2023-04-15T06:08:25;12.38;;;8.98;;
29662;SDS011;16578;53.266;7.920;2023-04-15T06:10:51;11.35;;;8.88;;
29662;SDS011;16578;53.266;7.920;2023-04-15T06:13:17;11.73;;;8.77;;
29662;SDS011;16578;53.266;7.920;2023-04-15T06:15:42;11.35;;;8.82;;
29662;SDS011;16578;53.266;7.920;2023-04-15T06:18:08;13.65;;;9.50;;
29662;SDS011;16578;53.266;7.920;2023-04-15T06:20:33;11.88;;;9.30;;
29662;SDS011;16578;53.266;7.920;2023-04-15T06:23:00;13.07;;;9.63;;
29662;SDS011;16578;53.266;7.920;2023-04-15T06:25:26;14.15;;;9.50;;
29662;SDS011;16578;53.266;7.920;2023-04-15T06:27:51;13.57;;;9.27;;
29662;SDS011;16578;53.266;7.920;2023-04-15T06:30:17;13.93;;;9.30;;
29662;SDS011;16578;53.266;7.920;2023-04-15T06:32:42;14.95;;;9.20;;
29662;SDS011;16578;53.266;7.920;2023-04-15T06:35:08;10.20;;;8.05;;
29662;SDS011;16578;53.266;7.920;2023-04-15T06:37:34;12.13;;;9.48;;
29662;SDS011;16578;53.266;7.920;2023-04-15T06:39:59;10.23;;;8.23;;
29662;SDS011;16578;53.266;7.920;2023-04-15T06:42:25;12.52;;;8.55;;
29662;SDS011;16578;53.266;7.920;2023-04-15T06:44:51;11.43;;;8.02;;
29662;SDS011;16578;53.266;7.920;2023-04-15T06:47:16;11.88;;;8.45;;
29662;SDS011;16578;53.266;7.920;2023-04-15T06:49:42;11.13;;;8.75;;
29662;SDS011;16578;53.266;7.920;2023-04-15T06:52:09;11.43;;;8.23;;
29662;SDS011;16578;53.266;7.920;2023-04-15T06:54:34;11.32;;;8.32;;
29662;SDS011;16578;53.266;7.920;2023-04-15T06:57:00;12.50;;;7.75;;
29662;SDS011;16578;53.266;7.920;2023-04-15T06:59:26;9.30;;;7.32;;
29662;SDS011;16578;53.266;7.920;2023-04-15T07:01:51;10.55;;;7.53;;
29662;SDS011;16578;53.266;7.920;2023-04-15T07:04:17;9.85;;;7.88;;
29662;SDS011;16578;53.266;7.920;2023-04-15T07:06:44;9.20;;;7.05;;
29662;SDS011;16578;53.266;7.920;2023-04-15T07:09:10;11.80;;;7.57;;
29662;SDS011;16578;53.266;7.920;2023-04-15T07:11:38;9.43;;;6.78;;
29662;SDS011;16578;53.266;7.920;2023-04-15T07:14:04;8.83;;;6.83;;
29662;SDS011;16578;53.266;7.920;2023-04-15T07:16:30;7.40;;;6.40;;
29662;SDS011;16578;53.266;7.920;2023-04-15T07:18:56;9.40;;;6.60;;
29662;SDS011;16578;53.266;7.920;2023-04-15T07:21:21;7.65;;;6.38;;
29662;SDS011;16578;53.266;7.920;2023-04-15T07:23:47;9.43;;;6.25;;
29662;SDS011;16578;53.266;7.920;2023-04-15T07:26:13;7.45;;;5.38;;
29662;SDS011;16578;53.266;7.920;2023-04-15T07:28:39;8.82;;;6.47;;
29662;SDS011;16578;53.266;7.920;2023-04-15T07:31:04;8.65;;;5.75;;
29662;SDS011;16578;53.266;7.920;2023-04-15T07:33:30;8.93;;;6.43;;
29662;SDS011;16578;53.266;7.920;2023-04-15T07:35:55;10.15;;;6.32;;
29662;SDS011;16578;53.266;7.920;2023-04-15T07:38:21;7.30;;;5.25;;
29662;SDS011;16578;53.266;7.920;2023-04-15T07:40:47;7.80;;;5.13;;
29662;SDS011;16578;53.266;7.920;2023-04-15T07:43:13;8.18;;;5.07;;
29662;SDS011;16578;53.266;7.920;2023-04-15T07:45:39;6.60;;;5.10;;
29662;SDS011;16578;53.266;7.920;2023-04-15T07:48:04;8.00;;;4.65;;
29662;SDS011;16578;53.266;7.920;2023-04-15T07:50:30;9.25;;;4.80;;
29662;SDS011;16578;53.266;7.920;2023-04-15T07:52:56;6.25;;;4.28;;
29662;SDS011;16578;53.266;7.920;2023-04-15T07:55:22;6.88;;;4.55;;
29662;SDS011;16578;53.266;7.920;2023-04-15T07:57:48;5.43;;;4.30;;
29662;SDS011;16578;53.266;7.920;2023-04-15T08:00:14;7.00;;;5.07;;
29662;SDS011;16578;53.266;7.920;2023-04-15T08:02:40;6.97;;;4.53;;
29662;SDS011;16578;53.266;7.920;2023-04-15T08:05:07;9.23;;;4.53;;
29662;SDS011;16578;53.266;7.920;2023-04-15T08:07:33;8.25;;;5.25;;
29662;SDS011;16578;53.266;7.920;2023-04-15T08:09:59;6.05;;;4.45;;
29662;SDS011;16578;53.266;7.920;2023-04-15T08:12:25;6.00;;;4.10;;
29662;SDS011;16578;53.266;7.920;2023-04-15T08:14:50;5.25;;;4.30;;
29662;SDS011;16578;53.266;7.920;2023-04-15T08:17:16;8.05;;;5.18;;
29662;SDS011;16578;53.266;7.920;2023-04-15T08:19:41;6.38;;;4.53;;
29662;SDS011;16578;53.266;7.920;2023-04-15T08:22:07;7.13;;;4.65;;
29662;SDS011;16578;53.266;7.920;2023-04-15T08:24:33;7.30;;;4.85;;
29662;SDS011;16578;53.266;7.920;2023-04-15T08:26:58;5.45;;;4.25;;
29662;SDS011;16578;53.266;7.920;2023-04-15T08:29:25;6.40;;;4.55;;
29662;SDS011;16578;53.266;7.920;2023-04-15T08:31:51;6.70;;;4.55;;
29662;SDS011;16578;53.266;7.920;2023-04-15T08:34:18;4.40;;;3.88;;
29662;SDS011;16578;53.266;7.920;2023-04-15T08:36:43;7.53;;;4.50;;
29662;SDS011;16578;53.266;7.920;2023-04-15T08:39:09;6.32;;;3.95;;
29662;SDS011;16578;53.266;7.920;2023-04-15T08:41:44;5.15;;;4.18;;
29662;SDS011;16578;53.266;7.920;2023-04-15T08:44:20;3.88;;;3.42;;
29662;SDS011;16578;53.266;7.920;2023-04-15T08:46:48;5.07;;;4.03;;
29662;SDS011;16578;53.266;7.920;2023-04-15T08:49:13;6.43;;;4.45;;
29662;SDS011;16578;53.266;7.920;2023-04-15T08:51:41;4.77;;;4.03;;
29662;SDS011;16578;53.266;7.920;2023-04-15T08:54:08;6.78;;;4.25;;
29662;SDS011;16578;53.266;7.920;2023-04-15T08:56:34;6.75;;;4.18;;
29662;SDS011;16578;53.266;7.920;2023-04-15T08:59:00;4.88;;;4.10;;
29662;SDS011;16578;53.266;7.920;2023-04-15T09:01:27;6.63;;;3.75;;
29662;SDS011;16578;53.266;7.920;2023-04-15T09:03:53;5.20;;;4.10;;
29662;SDS011;16578;53.266;7.920;2023-04-15T09:06:20;5.78;;;4.00;;
29662;SDS011;16578;53.266;7.920;2023-04-15T09:08:46;7.20;;;3.90;;
29662;SDS011;16578;53.266;7.920;2023-04-15T09:11:12;4.63;;;3.72;;
29662;SDS011;16578;53.266;7.920;2023-04-15T09:13:37;5.18;;;3.60;;
29662;SDS011;16578;53.266;7.920;2023-04-15T09:16:04;4.30;;;3.10;;
29662;SDS011;16578;53.266;7.920;2023-04-15T09:18:31;4.38;;;3.65;;
29662;SDS011;16578;53.266;7.920;2023-04-15T09:21:06;4.00;;;3.10;;
29662;SDS011;16578;53.266;7.920;2023-04-15T09:23:35;7.18;;;3.22;;
29662;SDS011;16578;53.266;7.920;2023-04-15T09:26:02;5.78;;;3.75;;
29662;SDS011;16578;53.266;7.920;2023-04-15T09:28:29;3.25;;;2.70;;
29662;SDS011;16578;53.266;7.920;2023-04-15T09:30:56;4.13;;;3.08;;
29662;SDS011;16578;53.266;7.920;2023-04-15T09:33:22;4.53;;;3.00;;
29662;SDS011;16578;53.266;7.920;2023-04-15T09:35:55;5.82;;;3.03;;
29662;SDS011;16578;53.266;7.920;2023-04-15T09:38:22;5.18;;;3.20;;
29662;SDS011;16578;53.266;7.920;2023-04-15T09:40:47;4.28;;;3.30;;
29662;SDS011;16578;53.266;7.920;2023-04-15T09:43:13;3.97;;;3.08;;
29662;SDS011;16578;53.266;7.920;2023-04-15T09:45:46;3.45;;;3.05;;
29662;SDS011;16578;53.266;7.920;2023-04-15T09:48:14;3.65;;;2.80;;
29662;SDS011;16578;53.266;7.920;2023-04-15T09:50:43;5.80;;;3.17;;
29662;SDS011;16578;53.266;7.920;2023-04-15T09:53:09;5.70;;;2.92;;
29662;SDS011;16578;53.266;7.920;2023-04-15T09:55:36;3.97;;;3.20;;
29662;SDS011;16578;53.266;7.920;2023-04-15T09:58:07;4.90;;;3.08;;
29662;SDS011;16578;53.266;7.920;2023-04-15T10:00:33;3.22;;;2.50;;
29662;SDS011;16578;53.266;7.920;2023-04-15T10:02:59;5.07;;;3.22;;
29662;SDS011;16578;53.266;7.920;2023-04-15T10:05:24;4.93;;;2.78;;
29662;SDS011;16578;53.266;7.920;2023-04-15T10:07:50;3.95;;;3.10;;
29662;SDS011;16578;53.266;7.920;2023-04-15T10:10:16;4.43;;;2.63;;
29662;SDS011;16578;53.266;7.920;2023-04-15T10:12:42;4.95;;;3.30;;
29662;SDS011;16578;53.266;7.920;2023-04-15T10:15:12;6.22;;;2.92;;
29662;SDS011;16578;53.266;7.920;2023-04-15T10:17:40;6.35;;;2.83;;
29662;SDS011;16578;53.266;7.920;2023-04-15T10:20:08;5.35;;;3.30;;
29662;SDS011;16578;53.266;7.920;2023-04-15T10:22:36;3.67;;;2.90;;
29662;SDS011;16578;53.266;7.920;2023-04-15T10:25:02;2.65;;;2.42;;
29662;SDS011;16578;53.266;7.920;2023-04-15T10:27:30;4.13;;;3.08;;
29662;SDS011;16578;53.266;7.920;2023-04-15T10:29:57;3.17;;;2.50;;
29662;SDS011;16578;53.266;7.920;2023-04-15T10:32:24;2.88;;;2.38;;
29662;SDS011;16578;53.266;7.920;2023-04-15T10:34:51;2.70;;;2.33;;
29662;SDS011;16578;53.266;7.920;2023-04-15T10:37:21;3.78;;;2.50;;
29662;SDS011;16578;53.266;7.920;2023-04-15T10:39:58;2.85;;;2.03;;
29662;SDS011;16578;53.266;7.920;2023-04-15T10:42:23;4.20;;;2.50;;
29662;SDS011;16578;53.266;7.920;2023-04-15T10:44:57;5.00;;;2.30;;
29662;SDS011;16578;53.266;7.920;2023-04-15T10:47:23;2.65;;;2.00;;
29662;SDS011;16578;53.266;7.920;2023-04-15T10:52:22;2.85;;;2.05;;
29662;SDS011;16578;53.266;7.920;2023-04-15T10:54:50;3.17;;;1.90;;
29662;SDS011;16578;53.266;7.920;2023-04-15T10:57:38;3.03;;;1.95;;
29662;SDS011;16578;53.266;7.920;2023-04-15T11:02:40;4.82;;;2.30;;
29662;SDS011;16578;53.266;7.920;2023-04-15T11:05:07;4.15;;;1.92;;
29662;SDS011;16578;53.266;7.920;2023-04-15T11:07:47;4.30;;;2.15;;
29662;SDS011;16578;53.266;7.920;2023-04-15T11:12:45;4.65;;;1.83;;
29662;SDS011;16578;53.266;7.920;2023-04-15T11:15:24;3.95;;;2.30;;
29662;SDS011;16578;53.266;7.920;2023-04-15T11:17:57;3.78;;;2.10;;
29662;SDS011;16578;53.266;7.920;2023-04-15T11:20:32;4.25;;;2.33;;
29662;SDS011;16578;53.266;7.920;2023-04-15T11:22:58;3.33;;;2.30;;
29662;SDS011;16578;53.266;7.920;2023-04-15T11:25:24;3.33;;;2.25;;
29662;SDS011;16578;53.266;7.920;2023-04-15T11:27:52;4.95;;;1.95;;
29662;SDS011;16578;53.266;7.920;2023-04-15T11:30:19;3.22;;;2.08;;
29662;SDS011;16578;53.266;7.920;2023-04-15T11:32:46;3.55;;;2.08;;
29662;SDS011;16578;53.266;7.920;2023-04-15T11:35:12;6.22;;;2.22;;
29662;SDS011;16578;53.266;7.920;2023-04-15T11:37:38;3.08;;;2.20;;
29662;SDS011;16578;53.266;7.920;2023-04-15T11:40:04;2.33;;;1.95;;
29662;SDS011;16578;53.266;7.920;2023-04-15T11:42:31;2.92;;;1.92;;
29662;SDS011;16578;53.266;7.920;2023-04-15T11:47:31;2.80;;;1.80;;
29662;SDS011;16578;53.266;7.920;2023-04-15T11:49:57;3.08;;;2.20;;
29662;SDS011;16578;53.266;7.920;2023-04-15T11:52:38;14.05;;;2.20;;
29662;SDS011;16578;53.266;7.920;2023-04-15T11:55:06;3.28;;;1.75;;
29662;SDS011;16578;53.266;7.920;2023-04-15T11:57:33;3.45;;;2.22;;
29662;SDS011;16578;53.266;7.920;2023-04-15T11:59:59;6.20;;;2.45;;
29662;SDS011;16578;53.266;7.920;2023-04-15T12:02:31;6.38;;;2.50;;
29662;SDS011;16578;53.266;7.920;2023-04-15T12:05:03;3.63;;;2.22;;
29662;SDS011;16578;53.266;7.920;2023-04-15T12:07:29;2.83;;;1.83;;
29662;SDS011;16578;53.266;7.920;2023-04-15T12:09:55;5.45;;;2.72;;
29662;SDS011;16578;53.266;7.920;2023-04-15T12:12:25;3.40;;;2.03;;
29662;SDS011;16578;53.266;7.920;2023-04-15T12:14:52;3.65;;;2.40;;
29662;SDS011;16578;53.266;7.920;2023-04-15T12:17:20;3.00;;;2.00;;
29662;SDS011;16578;53.266;7.920;2023-04-15T12:19:47;7.68;;;2.38;;
29662;SDS011;16578;53.266;7.920;2023-04-15T12:22:15;4.65;;;2.05;;
29662;SDS011;16578;53.266;7.920;2023-04-15T12:24:41;6.10;;;2.60;;
29662;SDS011;16578;53.266;7.920;2023-04-15T12:27:11;3.95;;;2.30;;
29662;SDS011;16578;53.266;7.920;2023-04-15T12:29:38;3.72;;;2.00;;
29662;SDS011;16578;53.266;7.920;2023-04-15T12:32:05;3.80;;;2.47;;
29662;SDS011;16578;53.266;7.920;2023-04-15T12:34:35;3.45;;;2.40;;
29662;SDS011;16578;53.266;7.920;2023-04-15T12:37:03;6.47;;;2.90;;
29662;SDS011;16578;53.266;7.920;2023-04-15T12:39:30;2.25;;;2.00;;
29662;SDS011;16578;53.266;7.920;2023-04-15T12:41:58;4.60;;;2.15;;
29662;SDS011;16578;53.266;7.920;2023-04-15T12:44:25;2.55;;;2.33;;
29662;SDS011;16578;53.266;7.920;2023-04-15T12:46:51;5.57;;;3.20;;
29662;SDS011;16578;53.266;7.920;2023-04-15T12:49:18;4.57;;;2.67;;
29662;SDS011;16578;53.266;7.920;2023-04-15T12:51:46;5.32;;;3.03;;
29662;SDS011;16578;53.266;7.920;2023-04-15T12:54:14;4.75;;;3.58;;
29662;SDS011;16578;53.266;7.920;2023-04-15T12:56:41;4.68;;;3.25;;
29662;SDS011;16578;53.266;7.920;2023-04-15T12:59:07;8.07;;;3.50;;
29662;SDS011;16578;53.266;7.920;2023-04-15T13:01:32;6.28;;;3.42;;
29662;SDS011;16578;53.266;7.920;2023-04-15T13:03:58;7.18;;;4.22;;
29662;SDS011;16578;53.266;7.920;2023-04-15T13:06:24;7.40;;;3.70;;
29662;SDS011;16578;53.266;7.920;2023-04-15T13:08:49;7.45;;;4.13;;
29662;SDS011;16578;53.266;7.920;2023-04-15T13:11:15;8.32;;;4.30;;
29662;SDS011;16578;53.266;7.920;2023-04-15T13:13:41;10.43;;;5.20;;
29662;SDS011;16578;53.266;7.920;2023-04-15T13:16:07;10.05;;;5.63;;
29662;SDS011;16578;53.266;7.920;2023-04-15T13:18:33;10.30;;;6.00;;
29662;SDS011;16578;53.266;7.920;2023-04-15T13:20:59;10.00;;;5.35;;
29662;SDS011;16578;53.266;7.920;2023-04-15T13:23:25;15.48;;;5.80;;
29662;SDS011;16578;53.266;7.920;2023-04-15T13:25:51;8.40;;;5.43;;
29662;SDS011;16578;53.266;7.920;2023-04-15T13:28:17;12.90;;;6.35;;
29662;SDS011;16578;53.266;7.920;2023-04-15T13:30:42;10.00;;;5.85;;
29662;SDS011;16578;53.266;7.920;2023-04-15T13:33:08;13.45;;;6.40;;
29662;SDS011;16578;53.266;7.920;2023-04-15T13:35:33;12.25;;;6.40;;
29662;SDS011;16578;53.266;7.920;2023-04-15T13:37:59;11.40;;;7.07;;
29662;SDS011;16578;53.266;7.920;2023-04-15T13:40:25;13.32;;;7.03;;
29662;SDS011;16578;53.266;7.920;2023-04-15T13:42:51;12.25;;;7.53;;
29662;SDS011;16578;53.266;7.920;2023-04-15T13:45:17;16.17;;;9.73;;
29662;SDS011;16578;53.266;7.920;2023-04-15T13:47:43;14.48;;;8.73;;
29662;SDS011;16578;53.266;7.920;2023-04-15T13:50:08;19.08;;;10.00;;
29662;SDS011;16578;53.266;7.920;2023-04-15T13:52:34;20.42;;;10.70;;
29662;SDS011;16578;53.266;7.920;2023-04-15T13:55:00;18.92;;;10.63;;
29662;SDS011;16578;53.266;7.920;2023-04-15T13:57:27;16.70;;;10.27;;
29662;SDS011;16578;53.266;7.920;2023-04-15T13:59:52;19.42;;;10.93;;
29662;SDS011;16578;53.266;7.920;2023-04-15T14:02:19;20.25;;;10.60;;
29662;SDS011;16578;53.266;7.920;2023-04-15T14:04:45;23.00;;;13.10;;
29662;SDS011;16578;53.266;7.920;2023-04-15T14:07:11;21.95;;;12.88;;
29662;SDS011;16578;53.266;7.920;2023-04-15T14:09:36;24.27;;;12.35;;
29662;SDS011;16578;53.266;7.920;2023-04-15T14:12:02;22.60;;;11.98;;
29662;SDS011;16578;53.266;7.920;2023-04-15T14:14:28;22.63;;;12.57;;
29662;SDS011;16578;53.266;7.920;2023-04-15T14:16:53;23.65;;;12.80;;
29662;SDS011;16578;53.266;7.920;2023-04-15T14:19:20;28.70;;;14.05;;
29662;SDS011;16578;53.266;7.920;2023-04-15T14:21:46;24.90;;;12.90;;
29662;SDS011;16578;53.266;7.920;2023-04-15T14:24:11;26.65;;;13.30;;
29662;SDS011;16578;53.266;7.920;2023-04-15T14:26:37;27.77;;;14.55;;
29662;SDS011;16578;53.266;7.920;2023-04-15T14:29:02;31.60;;;15.90;;
29662;SDS011;16578;53.266;7.920;2023-04-15T14:31:28;33.85;;;18.17;;
29662;SDS011;16578;53.266;7.920;2023-04-15T14:33:54;26.17;;;15.02;;
29662;SDS011;16578;53.266;7.920;2023-04-15T14:36:19;33.10;;;16.95;;
29662;SDS011;16578;53.266;7.920;2023-04-15T14:38:45;30.75;;;14.48;;
29662;SDS011;16578;53.266;7.920;2023-04-15T14:41:11;29.90;;;15.48;;
29662;SDS011;16578;53.266;7.920;2023-04-15T14:43:36;31.55;;;14.85;;
29662;SDS011;16578;53.266;7.920;2023-04-15T14:46:02;32.28;;;15.52;;
29662;SDS011;16578;53.266;7.920;2023-04-15T14:48:28;31.08;;;15.02;;
29662;SDS011;16578;53.266;7.920;2023-04-15T14:50:55;30.63;;;16.38;;
29662;SDS011;16578;53.266;7.920;2023-04-15T14:53:21;31.80;;;15.77;;
29662;SDS011;16578;53.266;7.920;2023-04-15T14:55:46;32.17;;;17.30;;
29662;SDS011;16578;53.266;7.920;2023-04-15T14:58:12;38.20;;;20.85;;
29662;SDS011;16578;53.266;7.920;2023-04-15T15:00:38;34.60;;;17.85;;
29662;SDS011;16578;53.266;7.920;2023-04-15T15:03:06;34.00;;;17.75;;
29662;SDS011;16578;53.266;7.920;2023-04-15T15:05:39;30.30;;;17.00;;